createdAt,value
2023-03-06T00:00:27.038Z,97404.22
2023-03-06T00:02:53.563Z,97403.03
2023-03-06T00:05:20.097Z,97400.41
2023-03-06T00:07:46.690Z,97406.47
2023-03-06T00:10:18.995Z,97389.69
2023-03-06T00:12:45.496Z,97391.06
2023-03-06T00:15:12.935Z,97386.59
2023-03-06T00:17:40.025Z,97389.63
2023-03-06T00:20:07.695Z,97393.78
2023-03-06T00:22:34.331Z,97383.63
2023-03-06T00:25:00.644Z,97384.25
2023-03-06T00:27:27.012Z,97378.00
2023-03-06T00:29:57.875Z,97379.09
2023-03-06T00:32:24.676Z,97378.69
2023-03-06T00:34:54.446Z,97367.16
2023-03-06T00:37:23.506Z,97364.53
2023-03-06T00:39:50.469Z,97367.91
2023-03-06T00:42:17.711Z,97364.81
2023-03-06T00:44:44.523Z,97355.50
2023-03-06T00:47:11.171Z,97359.50
2023-03-06T00:49:37.479Z,97357.06
2023-03-06T00:52:04.220Z,97355.88
2023-03-06T00:54:30.670Z,97347.16
2023-03-06T00:56:56.942Z,97346.16
2023-03-06T00:59:23.334Z,97336.44
2023-03-06T01:01:49.626Z,97340.88
2023-03-06T01:04:15.914Z,97332.16
2023-03-06T01:06:42.320Z,97333.19
2023-03-06T01:09:08.623Z,97331.34
2023-03-06T01:11:35.034Z,97321.81
2023-03-06T01:14:01.613Z,97323.47
2023-03-06T01:16:27.976Z,97324.41
2023-03-06T01:18:54.393Z,97316.06
2023-03-06T01:21:20.688Z,97306.34
2023-03-06T01:23:47.188Z,97311.44
2023-03-06T01:26:14.659Z,97301.44
2023-03-06T01:28:41.045Z,97301.63
2023-03-06T01:31:09.130Z,97301.38
2023-03-06T01:33:36.265Z,97299.13
2023-03-06T01:36:07.919Z,97293.69
2023-03-06T01:38:35.736Z,97291.25
2023-03-06T01:41:03.249Z,97286.97
2023-03-06T01:43:33.051Z,97285.09
2023-03-06T01:46:22.612Z,97281.03
2023-03-06T01:48:52.090Z,97276.78
2023-03-06T01:51:18.549Z,97279.59
2023-03-06T01:53:46.064Z,97271.22
2023-03-06T01:56:14.020Z,97273.63
2023-03-06T01:58:42.360Z,97268.97
2023-03-06T02:01:10.557Z,97264.97
2023-03-06T02:03:37.697Z,97267.41
2023-03-06T02:06:04.102Z,97257.69
2023-03-06T02:08:31.399Z,97257.44
2023-03-06T02:11:05.769Z,97257.66
2023-03-06T02:13:32.333Z,97260.72
2023-03-06T02:15:58.979Z,97248.19
2023-03-06T02:18:25.666Z,97252.28
2023-03-06T02:20:55.098Z,97245.19
2023-03-06T02:23:38.613Z,97247.00
2023-03-06T02:26:06.852Z,97240.94
2023-03-06T02:28:33.240Z,97246.00
2023-03-06T02:30:59.704Z,97246.25
2023-03-06T02:33:28.045Z,97238.78
2023-03-06T02:36:06.701Z,97238.97
2023-03-06T02:38:39.130Z,97233.09
2023-03-06T02:41:08.705Z,97221.75
2023-03-06T02:43:39.533Z,97216.13
2023-03-06T02:46:06.644Z,97213.47
2023-03-06T02:48:33.045Z,97217.50
2023-03-06T02:50:59.485Z,97213.88
2023-03-06T02:53:25.918Z,97217.94
2023-03-06T02:55:52.212Z,97212.47
2023-03-06T02:58:18.944Z,97215.72
2023-03-06T03:00:45.825Z,97208.25
2023-03-06T03:03:12.655Z,97216.59
2023-03-06T03:05:38.967Z,97208.50
2023-03-06T03:08:05.668Z,97207.06
2023-03-06T03:10:32.133Z,97197.94
2023-03-06T03:12:58.898Z,97202.75
2023-03-06T03:15:25.542Z,97194.25
2023-03-06T03:17:51.827Z,97196.69
2023-03-06T03:20:19.933Z,97190.78
2023-03-06T03:22:51.018Z,97191.19
2023-03-06T03:25:18.246Z,97192.38
2023-03-06T03:27:44.559Z,97187.50
2023-03-06T03:30:11.663Z,97180.78
2023-03-06T03:32:38.078Z,97183.06
2023-03-06T03:35:06.039Z,97184.69
2023-03-06T03:37:32.371Z,97182.66
2023-03-06T03:39:59.178Z,97182.03
2023-03-06T03:42:25.461Z,97175.69
2023-03-06T03:44:51.829Z,97180.16
2023-03-06T03:47:18.125Z,97178.13
2023-03-06T03:49:44.595Z,97176.97
2023-03-06T03:52:10.970Z,97185.03
2023-03-06T03:54:37.285Z,97179.34
2023-03-06T03:57:03.706Z,97172.78
2023-03-06T03:59:30.075Z,97170.09
2023-03-06T04:01:56.506Z,97160.19
2023-03-06T04:04:22.920Z,97154.31
2023-03-06T04:06:49.346Z,97155.47
2023-03-06T04:09:15.649Z,97149.59
2023-03-06T04:11:41.971Z,97151.59
2023-03-06T04:14:08.396Z,97144.09
2023-03-06T04:16:34.732Z,97146.28
2023-03-06T04:19:01.048Z,97150.50
2023-03-06T04:21:29.003Z,97144.44
2023-03-06T04:23:55.334Z,97148.31
2023-03-06T04:26:21.704Z,97147.50
2023-03-06T04:28:47.998Z,97144.66
2023-03-06T04:31:14.451Z,97148.72
2023-03-06T04:33:40.880Z,97140.66
2023-03-06T04:36:07.506Z,97139.47
2023-03-06T04:38:33.852Z,97138.66
2023-03-06T04:41:00.302Z,97132.38
2023-03-06T04:43:26.652Z,97141.28
2023-03-06T04:45:53.028Z,97142.28
2023-03-06T04:48:19.397Z,97135.97
2023-03-06T04:50:46.085Z,97134.97
2023-03-06T04:53:12.555Z,97129.47
2023-03-06T04:55:38.857Z,97124.41
2023-03-06T04:58:05.278Z,97120.75
2023-03-06T05:00:31.845Z,97121.16
2023-03-06T05:03:00.143Z,97110.63
2023-03-06T05:05:27.360Z,97116.22
2023-03-06T05:07:54.329Z,97116.63
2023-03-06T05:10:21.033Z,97114.56
2023-03-06T05:12:47.463Z,97112.13
2023-03-06T05:15:14.537Z,97111.13
2023-03-06T05:17:41.253Z,97106.22
2023-03-06T05:20:11.423Z,97108.25
2023-03-06T05:22:37.753Z,97114.13
2023-03-06T05:25:04.538Z,97106.84
2023-03-06T05:27:31.166Z,97105.03
2023-03-06T05:29:57.843Z,97109.53
2023-03-06T05:32:24.199Z,97108.00
2023-03-06T05:34:50.848Z,97110.44
2023-03-06T05:37:17.268Z,97106.38
2023-03-06T05:39:43.818Z,97099.66
2023-03-06T05:42:10.132Z,97106.56
2023-03-06T05:44:36.683Z,97100.91
2023-03-06T05:47:03.578Z,97099.97
2023-03-06T05:49:35.350Z,97094.38
2023-03-06T05:52:03.736Z,97095.06
2023-03-06T05:54:31.497Z,97089.66
2023-03-06T05:56:57.802Z,97092.28
2023-03-06T05:59:25.090Z,97095.53
2023-03-06T06:01:51.489Z,97081.75
2023-03-06T06:04:17.798Z,97089.03
2023-03-06T06:06:44.194Z,97085.59
2023-03-06T06:09:12.315Z,97088.66
2023-03-06T06:11:40.094Z,97093.91
2023-03-06T06:14:06.496Z,97085.41
2023-03-06T06:16:32.850Z,97088.03
2023-03-06T06:18:59.275Z,97080.56
2023-03-06T06:21:25.709Z,97079.56
2023-03-06T06:23:51.988Z,97077.34
2023-03-06T06:26:18.287Z,97074.78
2023-03-06T06:28:44.594Z,97077.44
2023-03-06T06:31:12.642Z,97080.50
2023-03-06T06:33:40.340Z,97078.47
2023-03-06T06:36:15.736Z,97078.72
2023-03-06T06:38:42.136Z,97077.34
2023-03-06T06:43:55.759Z,97080.44
2023-03-06T06:47:05.815Z,97072.75
2023-03-06T06:49:09.641Z,97074.59
2023-03-06T06:51:35.988Z,97077.06
2023-03-06T06:54:02.276Z,97084.97
2023-03-06T06:56:28.750Z,97075.28
2023-03-06T06:59:01.350Z,97072.66
2023-03-06T07:01:36.823Z,97085.09
2023-03-06T07:04:03.186Z,97086.13
2023-03-06T07:06:29.576Z,97086.19
2023-03-06T07:08:56.664Z,97082.34
2023-03-06T07:11:23.930Z,97087.41
2023-03-06T07:13:50.255Z,97081.78
2023-03-06T07:16:16.804Z,97091.13
2023-03-06T07:18:43.772Z,97098.25
2023-03-06T07:21:10.113Z,97094.59
2023-03-06T07:23:36.420Z,97098.25
2023-03-06T07:26:02.732Z,97096.44
2023-03-06T07:28:29.042Z,97090.94
2023-03-06T07:30:55.957Z,97092.38
2023-03-06T07:33:22.433Z,97086.47
2023-03-06T07:35:48.810Z,97081.41
2023-03-06T07:38:15.198Z,97087.09
2023-03-06T07:40:41.672Z,97089.13
2023-03-06T07:43:18.761Z,97086.28
2023-03-06T07:45:45.946Z,97086.69
2023-03-06T07:48:13.609Z,97089.91
2023-03-06T07:50:40.206Z,97096.44
2023-03-06T07:53:06.508Z,97096.22
2023-03-06T07:55:32.829Z,97089.72
2023-03-06T07:57:59.160Z,97091.53
2023-03-06T08:00:25.569Z,97095.81
2023-03-06T08:02:51.957Z,97096.22
2023-03-06T08:05:18.644Z,97093.38
2023-03-06T08:07:45.532Z,97102.28
2023-03-06T08:10:15.075Z,97098.59
2023-03-06T08:12:41.649Z,97095.78
2023-03-06T08:15:10.138Z,97095.56
2023-03-06T08:17:36.779Z,97102.06
2023-03-06T08:20:03.814Z,97101.19
2023-03-06T08:22:30.112Z,97093.69
2023-03-06T08:24:57.249Z,97103.97
2023-03-06T08:27:23.735Z,97101.91
2023-03-06T08:29:50.054Z,97096.41
2023-03-06T08:32:16.418Z,97099.66
2023-03-06T08:34:42.770Z,97102.53
2023-03-06T08:37:09.103Z,97100.50
2023-03-06T08:39:35.397Z,97105.19
2023-03-06T08:42:01.739Z,97103.34
2023-03-06T08:44:28.030Z,97102.50
2023-03-06T08:46:54.327Z,97106.94
2023-03-06T08:49:20.864Z,97102.25
2023-03-06T08:51:47.270Z,97115.66
2023-03-06T08:54:13.765Z,97111.16
2023-03-06T08:56:40.278Z,97112.31
2023-03-06T08:59:06.837Z,97105.34
2023-03-06T09:01:36.205Z,97103.84
2023-03-06T09:04:04.922Z,97107.34
2023-03-06T09:06:34.290Z,97109.34
2023-03-06T09:09:00.757Z,97108.28
2023-03-06T09:11:28.067Z,97113.78
2023-03-06T09:13:54.790Z,97108.91
2023-03-06T09:16:21.714Z,97110.75
2023-03-06T09:18:48.088Z,97106.66
2023-03-06T09:21:14.456Z,97113.25
2023-03-06T09:23:40.822Z,97109.75
2023-03-06T09:26:07.986Z,97109.31
2023-03-06T09:28:38.928Z,97110.56
2023-03-06T09:31:15.157Z,97102.84
2023-03-06T09:33:41.917Z,97099.53
2023-03-06T09:36:14.141Z,97101.97
2023-03-06T09:38:40.445Z,97094.91
2023-03-06T09:41:22.045Z,97095.41
2023-03-06T09:43:51.385Z,97099.59
2023-03-06T09:46:42.622Z,97103.25
2023-03-06T09:49:42.492Z,97093.28
2023-03-06T09:52:27.475Z,97102.19
2023-03-06T09:55:00.842Z,97102.16
2023-03-06T09:57:38.101Z,97100.81
2023-03-06T10:00:11.766Z,97104.41
2023-03-06T10:02:41.192Z,97106.59
2023-03-06T10:05:26.081Z,97097.28
2023-03-06T10:08:01.771Z,97103.31
2023-03-06T10:10:40.717Z,97104.06
2023-03-06T10:13:20.660Z,97101.34
2023-03-06T10:15:48.021Z,97098.16
2023-03-06T10:18:14.520Z,97101.78
2023-03-06T10:20:45.702Z,97105.00
2023-03-06T10:23:18.172Z,97104.00
2023-03-06T10:25:53.409Z,97099.69
2023-03-06T10:28:44.113Z,97093.25
2023-03-06T10:31:20.187Z,97103.44
2023-03-06T10:34:14.221Z,97107.59
2023-03-06T10:36:40.532Z,97103.09
2023-03-06T10:39:15.296Z,97108.50
2023-03-06T10:41:41.590Z,97102.75
2023-03-06T10:44:07.858Z,97106.44
2023-03-06T10:46:37.041Z,97104.03
2023-03-06T10:49:25.242Z,97101.97
2023-03-06T10:52:19.905Z,97100.63
2023-03-06T10:54:46.585Z,97103.13
2023-03-06T10:57:30.609Z,97094.81
2023-03-06T11:00:02.606Z,97101.63
2023-03-06T11:02:32.287Z,97104.28
2023-03-06T11:05:01.039Z,97098.56
2023-03-06T11:07:35.186Z,97100.94
2023-03-06T11:10:16.014Z,97097.34
2023-03-06T11:12:43.278Z,97107.72
2023-03-06T11:15:15.343Z,97100.56
2023-03-06T11:17:57.512Z,97102.75
2023-03-06T11:20:52.100Z,97093.03
2023-03-06T11:23:36.561Z,97095.50
2023-03-06T11:26:18.124Z,97094.97
2023-03-06T11:29:17.723Z,97093.63
2023-03-06T11:31:51.432Z,97089.97
2023-03-06T11:34:20.558Z,97085.53
2023-03-06T11:37:07.827Z,97085.38
2023-03-06T11:39:43.089Z,97083.25
2023-03-06T11:43:01.240Z,97084.06
2023-03-06T11:45:34.332Z,97079.19
2023-03-06T11:48:15.708Z,97078.94
2023-03-06T11:50:48.062Z,97079.47
2023-03-06T11:53:32.179Z,97075.06
2023-03-06T11:56:20.211Z,97073.50
2023-03-06T11:59:14.440Z,97067.78
2023-03-06T12:02:09.156Z,97061.91
2023-03-06T12:04:44.885Z,97057.28
2023-03-06T12:07:35.644Z,97061.06
2023-03-06T12:10:19.316Z,97061.50
2023-03-06T12:13:05.750Z,97065.09
2023-03-06T12:16:15.502Z,97052.81
2023-03-06T12:18:52.739Z,97055.06
2023-03-06T12:21:37.777Z,97058.50
2023-03-06T12:24:30.986Z,97048.22
2023-03-06T12:27:17.153Z,97050.25
2023-03-06T12:29:58.393Z,97042.53
2023-03-06T12:32:43.509Z,97041.44
2023-03-06T12:35:36.928Z,97046.22
2023-03-06T12:38:18.938Z,97041.19
2023-03-06T12:41:04.282Z,97041.03
2023-03-06T12:43:33.656Z,97030.28
2023-03-06T12:46:09.414Z,97029.81
2023-03-06T12:48:37.483Z,97018.09
2023-03-06T12:51:07.491Z,97015.81
2023-03-06T12:53:35.575Z,97019.03
2023-03-06T12:56:03.106Z,97018.31
2023-03-06T12:58:29.375Z,97018.56
2023-03-06T13:01:04.145Z,97014.63
2023-03-06T13:04:02.890Z,97018.72
2023-03-06T13:06:53.730Z,97016.75
2023-03-06T13:09:48.982Z,97005.94
2023-03-06T13:12:47.044Z,97014.22
2023-03-06T13:15:32.276Z,97012.53
2023-03-06T13:17:59.080Z,97014.81
2023-03-06T13:20:34.651Z,97010.63
2023-03-06T13:23:28.952Z,97019.25
2023-03-06T13:25:56.287Z,97015.44
2023-03-06T13:28:38.852Z,97007.88
2023-03-06T13:31:07.372Z,97006.88
2023-03-06T13:33:36.890Z,97010.25
2023-03-06T13:36:32.086Z,97003.00
2023-03-06T13:39:01.953Z,97013.66
2023-03-06T13:41:31.277Z,97010.06
2023-03-06T13:43:59.708Z,97013.00
2023-03-06T13:46:32.091Z,97005.44
2023-03-06T13:49:07.459Z,97004.09
2023-03-06T13:52:02.805Z,96999.47
2023-03-06T13:54:35.833Z,97005.13
2023-03-06T13:57:08.124Z,97009.75
2023-03-06T14:00:08.926Z,97011.47
2023-03-06T14:02:54.479Z,97008.94
2023-03-06T14:05:21.737Z,96998.97
2023-03-06T14:08:02.482Z,96998.50
2023-03-06T14:10:33.286Z,97011.69
2023-03-06T14:13:15.516Z,97002.03
2023-03-06T14:15:48.562Z,96990.09
2023-03-06T14:18:19.987Z,97002.81
2023-03-06T14:20:51.278Z,96997.72
2023-03-06T14:23:37.470Z,96994.91
2023-03-06T14:26:16.466Z,96996.44
2023-03-06T14:28:52.121Z,96991.50
2023-03-06T14:31:21.108Z,97002.84
2023-03-06T14:33:55.636Z,97004.25
2023-03-06T14:36:26.016Z,97003.22
2023-03-06T14:38:59.295Z,97002.63
2023-03-06T14:41:27.023Z,96996.38
2023-03-06T14:44:23.760Z,97000.97
2023-03-06T14:46:55.391Z,96988.50
2023-03-06T14:49:24.020Z,97000.91
2023-03-06T14:51:53.041Z,96999.81
2023-03-06T14:54:27.913Z,96993.94
2023-03-06T14:57:01.265Z,96996.53
2023-03-06T14:59:30.512Z,96994.69
2023-03-06T15:02:01.068Z,96995.72
2023-03-06T15:04:46.095Z,96987.09
2023-03-06T15:07:25.504Z,96986.72
2023-03-06T15:09:54.229Z,96988.38
2023-03-06T15:12:20.505Z,96988.19
2023-03-06T15:14:49.298Z,96988.22
2023-03-06T15:17:18.661Z,96988.28
2023-03-06T15:19:47.155Z,96988.59
2023-03-06T15:22:26.864Z,96993.06
2023-03-06T15:24:54.198Z,96989.09
2023-03-06T15:27:29.634Z,96988.50
2023-03-06T15:30:22.706Z,96992.25
2023-03-06T15:32:49.323Z,96997.28
2023-03-06T15:35:24.429Z,97002.84
2023-03-06T15:37:51.385Z,97003.31
2023-03-06T15:40:23.224Z,97000.84
2023-03-06T15:42:49.900Z,97001.72
2023-03-06T15:45:21.896Z,96998.97
2023-03-06T15:47:50.530Z,97006.94
2023-03-06T15:50:28.186Z,97007.19
2023-03-06T15:52:54.800Z,97004.53
2023-03-06T15:55:24.712Z,96998.63
2023-03-06T15:57:56.886Z,97008.59
2023-03-06T16:00:29.424Z,97006.72
2023-03-06T16:02:57.084Z,97016.09
2023-03-06T16:05:24.343Z,97005.22
2023-03-06T16:07:50.807Z,97013.97
2023-03-06T16:10:19.562Z,97006.66
2023-03-06T16:12:49.857Z,97020.91
2023-03-06T16:15:47.319Z,97013.38
2023-03-06T16:18:13.720Z,97015.44
2023-03-06T16:20:40.093Z,97012.78
2023-03-06T16:23:06.463Z,97009.53
2023-03-06T16:25:32.815Z,97013.19
2023-03-06T16:27:59.228Z,97008.34
2023-03-06T16:30:27.969Z,97004.09
2023-03-06T16:32:54.557Z,97011.81
2023-03-06T16:35:21.280Z,97013.63
2023-03-06T16:37:47.833Z,97010.19
2023-03-06T16:40:16.989Z,97010.16
2023-03-06T16:42:43.348Z,97011.19
2023-03-06T16:45:10.485Z,97011.19
2023-03-06T16:47:36.908Z,97011.59
2023-03-06T16:50:04.175Z,97006.34
2023-03-06T16:52:30.527Z,97009.97
2023-03-06T16:54:56.926Z,97008.16
2023-03-06T16:57:23.229Z,97003.47
2023-03-06T16:59:49.566Z,97004.09
2023-03-06T17:02:15.882Z,97008.75
2023-03-06T17:04:42.233Z,97015.03
2023-03-06T17:07:08.530Z,97013.63
2023-03-06T17:09:34.841Z,97009.78
2023-03-06T17:12:01.211Z,97009.78
2023-03-06T17:14:27.626Z,97017.88
2023-03-06T17:16:53.920Z,97018.09
2023-03-06T17:19:20.261Z,97023.78
2023-03-06T17:21:46.569Z,97029.41
2023-03-06T17:24:12.877Z,97032.88
2023-03-06T17:26:39.241Z,97035.69
2023-03-06T17:29:07.111Z,97034.91
2023-03-06T17:31:33.600Z,97040.38
2023-03-06T17:33:59.981Z,97040.38
2023-03-06T17:36:27.433Z,97044.44
2023-03-06T17:38:58.318Z,97039.97
2023-03-06T17:41:24.915Z,97045.47
2023-03-06T17:43:52.396Z,97041.78
2023-03-06T17:46:19.028Z,97053.97
2023-03-06T17:48:45.762Z,97048.50
2023-03-06T17:51:12.583Z,97049.31
2023-03-06T17:53:39.885Z,97052.34
2023-03-06T17:56:12.623Z,97051.31
2023-03-06T18:01:18.069Z,97049.53
2023-03-06T18:03:46.361Z,97054.41
2023-03-06T18:06:12.903Z,97058.66
2023-03-06T18:08:39.593Z,97054.59
2023-03-06T18:11:07.592Z,97052.78
2023-03-06T18:13:37.037Z,97049.31
2023-03-06T18:16:04.303Z,97052.78
2023-03-06T18:18:31.049Z,97053.19
2023-03-06T18:20:57.428Z,97045.06
2023-03-06T18:23:23.719Z,97049.50
2023-03-06T18:25:50.339Z,97055.78
2023-03-06T18:28:16.633Z,97059.06
2023-03-06T18:30:42.935Z,97064.13
2023-03-06T18:33:09.684Z,97053.16
2023-03-06T18:35:36.546Z,97052.97
2023-03-06T18:38:02.973Z,97055.78
2023-03-06T18:40:29.287Z,97052.97
2023-03-06T18:42:55.594Z,97058.81
2023-03-06T18:45:21.942Z,97052.31
2023-03-06T18:47:48.244Z,97057.59
2023-03-06T18:50:14.703Z,97051.09
2023-03-06T18:52:41.002Z,97053.53
2023-03-06T18:55:07.583Z,97052.72
2023-03-06T18:57:33.981Z,97059.41
2023-03-06T19:00:00.664Z,97054.16
2023-03-06T19:02:27.081Z,97056.97
2023-03-06T19:04:53.435Z,97056.56
2023-03-06T19:07:19.786Z,97053.75
2023-03-06T19:09:48.496Z,97047.84
2023-03-06T19:12:14.895Z,97064.03
2023-03-06T19:14:41.235Z,97055.53
2023-03-06T19:17:07.590Z,97059.59
2023-03-06T19:19:34.000Z,97048.66
2023-03-06T19:22:00.479Z,97062.03
2023-03-06T19:24:26.999Z,97069.13
2023-03-06T19:26:53.515Z,97058.97
2023-03-06T19:29:19.996Z,97059.97
2023-03-06T19:31:46.569Z,97058.75
2023-03-06T19:34:12.906Z,97065.03
2023-03-06T19:36:39.183Z,97069.09
2023-03-06T19:39:06.751Z,97066.47
2023-03-06T19:41:33.981Z,97062.81
2023-03-06T19:44:01.267Z,97062.00
2023-03-06T19:46:27.995Z,97068.06
2023-03-06T19:48:56.066Z,97064.63
2023-03-06T19:51:22.814Z,97062.00
2023-03-06T19:53:49.152Z,97060.97
2023-03-06T19:56:21.225Z,97060.97
2023-03-06T19:58:47.723Z,97060.56
2023-03-06T20:01:17.149Z,97059.75
2023-03-06T20:03:44.132Z,97050.63
2023-03-06T20:06:13.817Z,97051.25
2023-03-06T20:08:40.144Z,97056.53
2023-03-06T20:11:06.560Z,97055.31
2023-03-06T20:13:32.904Z,97061.00
2023-03-06T20:16:02.719Z,97054.94
2023-03-06T20:18:29.065Z,97047.03
2023-03-06T20:21:04.009Z,97049.28
2023-03-06T20:23:31.553Z,97053.13
2023-03-06T20:26:02.634Z,97049.28
2023-03-06T20:28:28.992Z,97048.47
2023-03-06T20:30:55.308Z,97039.75
2023-03-06T20:33:21.739Z,97042.19
2023-03-06T20:35:48.064Z,97045.63
2023-03-06T20:38:14.489Z,97051.09
2023-03-06T20:40:42.173Z,97053.94
2023-03-06T20:43:08.706Z,97052.94
2023-03-06T20:45:35.129Z,97047.44
2023-03-06T20:48:01.549Z,97051.91
2023-03-06T20:50:27.904Z,97054.13
2023-03-06T20:52:55.677Z,97054.34
2023-03-06T20:55:22.327Z,97056.34
2023-03-06T20:57:49.912Z,97045.78
2023-03-06T21:00:17.808Z,97046.59
2023-03-06T21:02:44.722Z,97034.88
2023-03-06T21:05:11.102Z,97043.97
2023-03-06T21:07:37.587Z,97038.69
2023-03-06T21:10:04.432Z,97041.34
2023-03-06T21:12:30.749Z,97046.81
2023-03-06T21:14:57.056Z,97040.53
2023-03-06T21:17:23.423Z,97041.72
2023-03-06T21:19:49.731Z,97036.44
2023-03-06T21:22:16.169Z,97038.28
2023-03-06T21:24:42.480Z,97030.78
2023-03-06T21:27:08.786Z,97030.56
2023-03-06T21:29:35.266Z,97019.44
2023-03-06T21:32:01.623Z,97022.88
2023-03-06T21:34:27.970Z,97026.72
2023-03-06T21:36:54.310Z,97025.72
2023-03-06T21:39:20.615Z,97021.06
2023-03-06T21:41:46.943Z,97019.63
2023-03-06T21:44:13.274Z,97019.63
2023-03-06T21:46:39.640Z,97019.84
2023-03-06T21:49:05.980Z,97020.84
2023-03-06T21:51:32.423Z,97013.75
2023-03-06T21:53:58.726Z,97013.16
2023-03-06T21:56:25.518Z,97010.72
2023-03-06T21:58:52.004Z,97004.63
2023-03-06T22:01:22.506Z,97005.44
2023-03-06T22:03:48.900Z,97000.38
2023-03-06T22:06:21.504Z,96995.72
2023-03-06T22:08:47.948Z,97002.00
2023-03-06T22:11:16.983Z,96996.31
2023-03-06T22:13:44.423Z,97000.59
2023-03-06T22:16:11.806Z,96992.69
2023-03-06T22:18:38.217Z,96988.22
2023-03-06T22:21:09.052Z,96993.28
2023-03-06T22:23:35.691Z,96996.13
2023-03-06T22:26:03.777Z,96993.28
2023-03-06T22:28:30.092Z,97000.19
2023-03-06T22:31:02.893Z,96995.91
2023-03-06T22:33:29.194Z,96999.97
2023-03-06T22:35:59.888Z,96998.13
2023-03-06T22:38:26.300Z,97001.19
2023-03-06T22:40:56.474Z,96998.53
2023-03-06T22:43:22.851Z,96995.50
2023-03-06T22:45:49.203Z,96988.41
2023-03-06T22:48:15.538Z,96986.19
2023-03-06T22:50:41.868Z,96991.25
2023-03-06T22:53:08.164Z,96990.22
2023-03-06T22:55:35.330Z,96989.22
2023-03-06T22:58:02.008Z,96986.19
2023-03-06T23:00:28.493Z,96989.44
2023-03-06T23:02:54.883Z,96993.50
2023-03-06T23:05:21.621Z,96982.75
2023-03-06T23:07:48.220Z,96982.53
2023-03-06T23:10:14.495Z,96984.16
2023-03-06T23:12:40.919Z,96982.75
2023-03-06T23:15:07.797Z,96977.28
2023-03-06T23:17:34.414Z,96978.50
2023-03-06T23:20:00.730Z,96971.19
2023-03-06T23:22:27.022Z,96973.00
2023-03-06T23:24:53.395Z,96975.66
2023-03-06T23:27:19.675Z,96973.38
2023-03-06T23:29:49.674Z,96968.94
2023-03-06T23:32:16.029Z,96966.94
2023-03-06T23:34:42.574Z,96973.38
2023-03-06T23:37:08.901Z,96972.16
2023-03-06T23:39:35.333Z,96975.00
2023-03-06T23:42:01.807Z,96968.72
2023-03-06T23:44:28.219Z,96973.38
2023-03-06T23:46:54.504Z,96980.47
2023-03-06T23:49:21.945Z,96969.53
2023-03-06T23:51:48.342Z,96976.59
2023-03-06T23:54:14.771Z,96974.78
2023-03-06T23:56:41.075Z,96963.63
2023-03-06T23:59:07.499Z,96967.09
